15:07
Airports
History
Links
Donate
Help keep this website running!
PayPal
Bitcoin
This page is community maintained. The information is intended for PC simulator navigation or reference.
Always use approved charts for navigation.
SJPO
Xingo
Xingo (SJPO)
Piranhas, Alagoas, Brazil (57460)
4
Lat/Lng:9° 35' 16" S / 37° 46' 42" W
-9.587778 / -37.778333
Elevation:791'ft / 241mMSL
ID / ICAO:SJPO
Runways:1
Longest:16-34
Dirt 933m / 3,062ft
Nearby Weather13:00 GMT 2017-11-23
Nearby weather at SBUF, PAULO AFONSO located 34.7 nautical miles from SJPO
Altimeter: 29.94
Visibility: 6.2 statute miles
Wind: 4 knots (from 070°)
Temp: 34°c / 93°f
Humidity: 36.4%

METAR: SBUF 231300Z 07004KT CAVOK 34/17 Q1014

(Powered by phpweather)
Runway 16 / 34
Dimensions:933.4 x 28m 3062' x 92'ft
Surface:Dirt
Runway 16 [A]Runway 34 [B]
Heading:137°TH 317°TH
Lat:
Lng:
9° 35' 4.77"S
37° 46' 52.38"W
9° 35' 27.23"S
37° 46' 31.62"W
User Notes and Comments
9° 35' 16" S / 37° 46' 42" W
Distance To
Airport ID:
Nearby Airports
(C) PAULO AFONSO 34.7 NM
SBUF ( WX ) WNW 291°
(U) ADUSTINA 71.8 NM
SNAH SSW 197°
4 Ibimirim 75.5 NM
SNIY N
(C) Arapiraca 79.3 NM
SNAL E 99°
(U) Propria 79.6 NM
SNOP SE 126°
4 Fazenda Santa Rita 93.9 NM
SINV N
(U) ARCOVERDE 94.1 NM
SNAE NNE 30°
VFR Chart
Flight Planning at SkyVector.com